Latest Weather Observations for Port Fairy

IDV60801

Issued at 6:32 pm EDT Friday 20 January 2017 (issued every 30 minutes, with the page automatically refreshed every 10 minutes)

About weather observations | Map of weather stations | Latest weather observations for VIC | Other Formats
Station Details ID: 090175 Name: PORT FAIRY AWS Lat: -38.39 Lon: 142.23 Height: 10.0 m
Data from the previous 72 hours. | See also: Recent months at Port Fairy
Date/Time
EDT
Temp
°C
App
Temp
°C
Dew
Point
°C
Rel
Hum
%
Delta-T
°C
Wind Press
QNH
hPa
Press
MSL
hPa
Rain since
9am
mm
Dir  Spd
km/h
Gust
km/h
Spd
kts
Gust
kts
20/06:30pm 16.0 11.5 9.9 67 3.2 SSW 24 32 13 17 1008.6 1008.6 0.2
20/06:00pm 15.9 11.4 10.0 68 3.1 SSW 24 35 13 19 1008.4 1008.4 0.2
20/05:30pm 17.3 12.7 11.1 67 3.3 SSW 26 37 14 20 1008.1 1008.1 0.2
20/05:00pm 16.6 12.4 11.1 70 3.0 SSW 24 35 13 19 1007.6 1007.6 0.2
20/04:30pm 17.7 13.7 11.9 69 3.2 SSW 24 35 13 19 1007.3 1007.3 0.2
20/04:00pm 17.6 13.6 11.9 69 3.1 SSW 24 33 13 18 1007.1 1007.1 0.2
20/03:30pm 16.2 11.6 10.9 71 2.8 SSW 26 37 14 20 1006.7 1006.7 0.2
20/03:00pm 16.9 12.2 10.7 67 3.3 SSW 26 37 14 20 1006.3 1006.3 0.2
20/02:30pm 17.3 12.4 11.3 68 3.2 SSW 28 39 15 21 1005.8 1005.8 0.2
20/02:00pm 15.9 10.7 11.7 76 2.3 SSW 30 39 16 21 1005.5 1005.5 0.2
20/01:30pm 16.7 11.1 11.6 72 2.8 SSW 32 43 17 23 1005.1 1005.1 0.2
20/01:00pm 16.0 10.4 12.2 78 2.1 SSW 33 48 18 26 1004.8 1004.8 0.0
20/12:30pm 16.4 11.9 12.6 78 2.1 SSW 28 41 15 22 1004.3 1004.3 0.0
20/12:00pm 17.1 11.1 12.0 72 2.8 SW 35 46 19 25 1003.7 1003.7 0.0
20/11:30am 16.2 9.6 11.4 73 2.6 SW 37 50 20 27 1003.2 1003.2 0.0
20/11:00am 15.9 10.0 12.3 79 2.0 SW 35 46 19 25 1002.7 1002.7 0.0
20/10:30am 15.8 10.5 12.4 80 1.9 SW 32 43 17 23 1001.8 1001.8 0.0
20/10:00am 15.3 10.7 12.2 82 1.7 SSW 28 41 15 22 1000.8 1000.8 0.0
20/09:30am 14.9 10.0 12.4 85 1.4 SSW 30 43 16 23 1000.2 1000.2 0.0
20/09:00am 14.7 9.4 12.6 87 1.2 SSW 32 43 17 23 999.9 999.9 19.0
20/08:30am 15.0 10.2 12.9 87 1.2 SSW 30 41 16 22 999.2 999.2 19.0
20/08:00am 14.6 8.9 13.1 91 0.8 S 35 46 19 25 998.4 998.4 19.0
20/07:30am 14.8 8.2 13.8 94 0.6 S 41 56 22 30 997.6 997.6 19.0
20/07:00am 15.3 10.7 14.5 95 0.5 SSW 32 46 17 25 996.8 996.8 19.0
20/06:30am 15.6 12.7 15.1 97 0.3 SSW 24 33 13 18 996.3 996.3 19.0
20/06:00am 15.1 12.4 14.6 97 0.3 SW 22 30 12 16 996.2 996.2 19.0
20/05:30am 14.5 13.3 13.9 96 0.3 W 13 19 7 10 995.5 995.5 18.2
20/05:29am 14.5 13.3 13.9 96 0.3 W 13 22 7 12 995.5 995.5 18.2
20/05:00am 14.3 13.0 13.7 96 0.3 N 13 20 7 11 993.5 993.5 17.6
20/04:30am 14.4 13.1 13.6 95 0.4 NNE 13 22 7 12 993.4 993.4 16.8
20/04:00am 14.5 12.5 13.9 96 0.3 NE 17 28 9 15 994.1 994.1 16.6
20/03:30am 14.5 12.9 13.9 96 0.3 ENE 15 28 8 15 995.0 995.0 16.6
20/03:00am 14.3 10.2 13.7 96 0.3 ENE 28 43 15 23 995.0 995.0 16.4
20/02:30am 14.3 10.1 13.5 95 0.4 E 28 43 15 23 996.7 996.7 15.2
20/02:22am 14.4 11.7 13.6 95 0.4 E 20 30 11 16 998.4 998.4 14.8
20/02:00am 14.3 12.1 13.2 93 0.6 E 17 24 9 13 1000.4 1000.4 13.2
20/01:53am 14.4 12.6 13.3 93 0.6 E 15 20 8 11 1001.1 1001.1 12.6
20/01:30am 14.0 10.9 12.2 89 1.0 SSE 20 26 11 14 1003.1 1003.1 10.6
20/01:00am 15.4 14.1 13.8 90 0.9 S 13 19 7 10 1003.9 1003.9 9.0
20/12:30am 16.2 14.8 14.6 90 0.9 SW 15 17 8 9 1004.7 1004.7 6.0
20/12:00am 16.4 16.0 14.2 87 1.3 WSW 9 13 5 7 1003.1 1003.1 3.2
 
Date/Time
EDT
Temp
°C
App
Temp
°C
Dew
Point
°C
Rel
Hum
%
Delta-T
°C
Wind Press
QNH
hPa
Press
MSL
hPa
Rain since
9am
mm
Dir  Spd
km/h
Gust
km/h
Spd
kts
Gust
kts
19/11:39pm 17.5 16.7 14.0 80 2.0 W 11 22 6 12 1002.5 1002.5 0.6
19/11:30pm 18.6 18.4 13.5 72 2.9 NE 7 17 4 9 1000.4 1000.4 0.0
19/11:29pm 18.5 17.8 13.1 71 3.0 ENE 9 19 5 10 1000.1 1000.1 0.0
19/11:00pm 18.3 16.8 15.2 82 1.8 E 17 26 9 14 997.9 997.9 0.0
19/10:30pm 18.2 16.1 15.3 83 1.7 ESE 20 30 11 16 998.9 998.9 0.0
19/10:00pm 18.1 15.5 14.8 81 1.9 ESE 22 32 12 17 1000.2 1000.2 0.0
19/09:30pm 18.2 16.6 14.9 81 1.9 ESE 17 24 9 13 1001.3 1001.3 0.0
19/09:00pm 18.0 15.7 14.1 78 2.2 ESE 19 28 10 15 1001.8 1001.8 0.0
19/08:30pm 17.7 15.0 13.4 76 2.4 ESE 20 32 11 17 1002.5 1002.5 0.0
19/08:00pm 17.5 14.6 13.0 75 2.5 ESE 20 30 11 16 1003.1 1003.1 0.0
19/07:30pm 17.6 14.1 12.3 71 2.9 ESE 22 33 12 18 1003.6 1003.6 0.0
19/07:00pm 16.9 13.1 11.2 69 3.1 ESE 22 33 12 18 1003.8 1003.8 0.0
19/06:30pm 17.0 12.5 11.5 70 3.0 ESE 26 37 14 20 1004.8 1004.8 0.0
19/06:00pm 16.9 12.4 11.4 70 3.0 SE 26 35 14 19 1005.8 1005.8 0.0
19/05:30pm 17.3 12.7 11.1 67 3.3 SE 26 33 14 18 1007.1 1007.1 0.0
19/05:00pm 17.6 13.5 11.4 67 3.4 SE 24 32 13 17 1007.8 1007.8 0.0
19/04:30pm 18.3 14.2 11.4 64 3.8 SE 24 32 13 17 1007.9 1007.9 0.0
19/04:00pm 18.5 14.1 11.6 64 3.8 SE 26 33 14 18 1008.3 1008.3 0.0
19/03:30pm 19.2 14.8 11.7 62 4.1 SE 26 32 14 17 1008.7 1008.7 0.0
19/03:00pm 19.6 15.2 11.6 60 4.4 SE 26 37 14 20 1009.3 1009.3 0.0
19/02:30pm 19.3 14.7 11.1 59 4.5 SE 26 35 14 19 1009.8 1009.8 0.0
19/02:00pm 19.2 15.0 11.0 59 4.5 SE 24 32 13 17 1010.8 1010.8 0.0
19/01:30pm 19.2 15.0 11.0 59 4.5 SE 24 32 13 17 1011.6 1011.6 0.0
19/01:00pm 18.9 15.0 10.7 59 4.4 SE 22 32 12 17 1012.1 1012.1 0.0
19/12:30pm 18.8 15.2 10.4 58 4.5 SE 20 30 11 16 1012.5 1012.5 0.0
19/12:00pm 18.2 14.5 10.1 59 4.3 SE 20 30 11 16 1013.2 1013.2 0.0
19/11:30am 18.2 14.4 9.8 58 4.4 SE 20 28 11 15 1013.4 1013.4 0.0
19/11:00am 18.2 14.5 9.3 56 4.7 ESE 19 28 10 15 1013.7 1013.7 0.0
19/10:30am 17.3 13.6 9.5 60 4.1 ESE 19 28 10 15 1014.1 1014.1 0.0
19/10:00am 16.7 12.9 9.1 61 3.9 E 19 30 10 16 1014.4 1014.4 0.0
19/09:30am 16.6 13.2 9.1 61 3.9 E 17 28 9 15 1014.6 1014.6 0.0
19/09:00am 15.5 12.3 8.5 63 3.5 E 15 24 8 13 1015.0 1015.0 0.0
19/08:30am 14.9 12.1 8.6 66 3.2 E 13 19 7 10 1015.1 1015.1 0.0
19/08:00am 13.8 11.3 8.2 69 2.8 ENE 11 26 6 14 1015.2 1015.2 0.0
19/07:30am 13.4 10.6 8.7 73 2.4 ENE 13 20 7 11 1015.2 1015.2 0.0
19/07:00am 13.0 10.3 8.9 76 2.1 E 13 20 7 11 1015.1 1015.1 0.0
19/06:30am 12.6 9.9 8.9 78 1.9 E 13 20 7 11 1015.3 1015.3 0.0
19/06:00am 12.3 10.3 8.8 79 1.7 ENE 9 15 5 8 1015.4 1015.4 0.0
19/05:30am 11.8 10.1 7.5 75 2.1 NNE 6 11 3 6 1015.4 1015.4 0.0
19/05:00am 13.7 10.9 8.7 72 2.5 ENE 13 24 7 13 1015.4 1015.4 0.0
19/04:30am 14.0 9.8 8.2 68 2.9 ESE 20 30 11 16 1015.2 1015.2 0.0
19/04:00am 14.0 10.0 8.2 68 2.9 ESE 19 28 10 15 1015.4 1015.4 0.0
19/03:30am 14.0 9.9 8.0 67 3.0 ESE 19 28 10 15 1015.7 1015.7 0.0
19/03:00am 14.1 9.4 7.9 66 3.1 ESE 22 28 12 15 1015.9 1015.9 0.0
19/02:30am 14.4 10.0 9.0 70 2.7 SE 22 32 12 17 1016.4 1016.4 0.0
19/02:00am 14.6 10.3 9.2 70 2.8 SE 22 33 12 18 1016.5 1016.5 0.0
19/01:30am 14.5 10.4 8.5 67 3.0 ESE 20 30 11 16 1016.9 1016.9 0.0
19/01:00am 14.4 10.4 8.1 66 3.1 ESE 19 30 10 16 1017.2 1017.2 0.0
19/12:30am 14.6 9.7 8.3 66 3.2 SE 24 33 13 18 1017.4 1017.4 0.0
19/12:00am 14.8 10.3 8.5 66 3.2 SE 22 32 12 17 1017.7 1017.7 0.0
 
Date/Time
EDT
Temp
°C
App
Temp
°C
Dew
Point
°C
Rel
Hum
%
Delta-T
°C
Wind Press
QNH
hPa
Press
MSL
hPa
Rain since
9am
mm
Dir  Spd
km/h
Gust
km/h
Spd
kts
Gust
kts
18/11:30pm 14.8 10.7 8.5 66 3.2 SE 20 28 11 15 1018.0 1018.0 0.0
18/11:00pm 14.9 9.8 9.1 68 3.0 SE 26 35 14 19 1017.9 1017.9 0.0
18/10:30pm 15.1 9.6 9.2 68 3.0 SE 28 35 15 19 1017.8 1017.8 0.0
18/10:00pm 15.1 9.9 8.8 66 3.2 SE 26 33 14 18 1017.7 1017.7 0.0
18/09:30pm 15.1 9.7 7.9 62 3.6 SE 26 35 14 19 1017.8 1017.8 0.0
18/09:00pm 15.1 10.1 7.9 62 3.6 SE 24 32 13 17 1017.8 1017.8 0.0
18/08:30pm 15.5 10.1 8.0 61 3.8 SE 26 37 14 20 1017.8 1017.8 0.0
18/08:00pm 16.0 11.0 8.0 59 4.0 SE 24 32 13 17 1017.7 1017.7 0.0
18/07:30pm 16.5 11.9 8.2 58 4.2 SSE 22 30 12 16 1017.6 1017.6 0.0
18/07:00pm 17.0 12.6 7.4 53 4.8 SSE 20 30 11 16 1017.6 1017.6 0.0
18/06:30pm 17.3 12.1 7.1 51 5.1 SE 24 32 13 17 1017.5 1017.5 0.0
18/06:00pm 17.6 12.7 7.1 50 5.2 SSE 22 30 12 16 1017.4 1017.4 0.0
18/05:30pm 17.9 13.2 7.6 51 5.2 SSE 22 30 12 16 1017.6 1017.6 0.0
18/05:00pm 18.0 13.5 8.6 54 4.8 SSE 22 33 12 18 1017.5 1017.5 0.0
18/04:30pm 18.4 13.9 8.7 53 5.0 SSE 22 30 12 16 1017.4 1017.4 0.0
18/04:00pm 18.3 13.9 8.8 54 4.9 SSE 22 32 12 17 1017.5 1017.5 0.0
18/03:30pm 18.1 13.7 7.5 50 5.4 SSE 20 28 11 15 1017.6 1017.6 0.0
18/03:00pm 18.1 13.9 8.1 52 5.1 SSE 20 32 11 17 1017.7 1017.7 0.0
18/02:30pm 18.7 15.0 9.5 55 4.9 S 19 28 10 15 1017.7 1017.7 0.0
18/02:00pm 18.5 14.7 9.0 54 4.9 S 19 26 10 14 1017.7 1017.7 0.0
18/01:30pm 18.9 15.5 9.1 53 5.1 S 17 26 9 14 1017.7 1017.7 0.0
18/01:00pm 18.4 14.4 9.2 55 4.8 S 20 28 11 15 1017.5 1017.5 0.0
18/12:30pm 17.9 14.1 9.8 59 4.3 S 20 32 11 17 1017.4 1017.4 0.0
18/12:00pm 16.8 13.4 9.2 61 3.9 S 17 24 9 13 1017.4 1017.4 0.0
18/11:30am 16.7 12.8 9.6 63 3.7 S 20 32 11 17 1017.2 1017.2 0.0
18/11:00am 18.3 15.1 9.9 58 4.4 S 17 24 9 13 1016.8 1016.8 0.0
18/10:30am 17.6 14.0 9.8 60 4.1 S 19 28 10 15 1016.5 1016.5 0.0
18/10:00am 16.7 12.7 8.9 60 4.0 S 20 32 11 17 1016.2 1016.2 0.0
18/09:30am 16.6 12.3 9.3 62 3.8 S 22 32 12 17 1015.8 1015.8 0.0
18/09:00am 16.2 11.6 9.6 65 3.4 S 24 35 13 19 1015.5 1015.5 0.4
18/08:30am 16.2 11.9 10.7 70 2.9 S 24 33 13 18 1014.9 1014.9 0.4
18/08:00am 16.0 11.3 10.5 70 2.9 S 26 35 14 19 1014.6 1014.6 0.4
18/07:30am 16.0 12.2 11.2 73 2.6 SSW 22 32 12 17 1014.1 1014.1 0.4
18/07:00am 15.8 11.8 10.6 71 2.8 SSW 22 33 12 18 1013.7 1013.7 0.4
18/06:30am 15.7 10.8 9.8 68 3.1 S 26 35 14 19 1013.2 1013.2 0.4
18/06:00am 16.2 12.5 11.4 73 2.6 S 22 35 12 19 1012.5 1012.5 0.4
18/05:30am 15.9 11.6 10.9 72 2.7 S 24 32 13 17 1012.2 1012.2 0.4
18/05:00am 16.0 12.2 11.2 73 2.6 SSW 22 30 12 16 1011.5 1011.5 0.4
18/04:30am 15.9 12.7 11.9 77 2.2 SSW 20 30 11 16 1011.0 1011.0 0.4
18/04:00am 14.9 13.3 12.8 87 1.2 WSW 13 17 7 9 1010.9 1010.9 0.4
18/03:30am 14.8 13.2 12.7 87 1.2 SW 13 17 7 9 1010.9 1010.9 0.2
18/03:00am 14.4 12.5 11.9 85 1.3 SSW 13 22 7 12 1009.9 1009.9 0.2
18/02:30am 14.1 11.0 11.6 85 1.3 SW 19 28 10 15 1011.1 1011.1 0.2
18/02:00am 15.1 10.8 12.2 83 1.6 SW 26 33 14 18 1011.3 1011.3 0.0
18/01:30am 15.5 10.7 13.0 85 1.4 SW 30 37 16 20 1011.3 1011.3 0.0
18/01:00am 15.7 12.5 13.2 85 1.4 SW 22 28 12 15 1011.7 1011.7 0.0
18/12:30am 16.0 13.0 13.7 86 1.3 WSW 22 30 12 16 1011.5 1011.5 0.0
18/12:00am 16.4 13.0 13.7 84 1.5 WSW 24 33 13 18 1011.3 1011.3 0.0
 
Date/Time
EDT
Temp
°C
App
Temp
°C
Dew
Point
°C
Rel
Hum
%
Delta-T
°C
Wind Press
QNH
hPa
Press
MSL
hPa
Rain since
9am
mm
Dir  Spd
km/h
Gust
km/h
Spd
kts
Gust
kts
17/11:30pm 17.0 13.7 14.1 83 1.7 SW 24 33 13 18 1011.8 1011.8 0.0
17/11:00pm 17.1 14.9 14.9 87 1.3 WSW 20 26 11 14 1011.7 1011.7 0.0
17/10:30pm 17.3 13.3 15.1 87 1.3 SW 30 41 16 22 1011.8 1011.8 0.0
17/10:00pm 17.7 13.6 15.9 89 1.1 SW 32 39 17 21 1011.1 1011.1 0.0
17/09:54pm 17.6 13.8 15.8 89 1.1 SW 30 39 16 21 1010.5 1010.5 0.0
17/09:30pm 17.6 16.7 15.8 89 1.1 SW 15 20 8 11 1009.9 1009.9 0.0
17/09:00pm 17.5 17.7 15.8 90 1.0 SSW 9 15 5 8 1009.3 1009.3 0.0
17/08:30pm 17.6 15.1 16.1 91 0.9 SSW 24 32 13 17 1010.0 1010.0 0.0
17/08:00pm 18.0 15.6 16.3 90 1.0 SW 24 30 13 16 1009.8 1009.8 0.0
17/07:30pm 18.5 16.6 16.8 90 1.0 SW 22 32 12 17 1009.0 1009.0 0.0
17/07:00pm 19.2 18.1 17.2 88 1.2 SW 19 22 10 12 1008.0 1008.0 0.0

Other Formats:

Comma delimited format used in spreadsheet applications
http://www.bom.gov.au/fwo/IDV60801/IDV60801.94830.axf

JavaScript Object Notation format (JSON) in row-major order
http://www.bom.gov.au/fwo/IDV60801/IDV60801.94830.json